createdAt,value
2022-08-10T00:00:55.643Z,69.05
2022-08-10T00:03:25.712Z,69.06
2022-08-10T00:06:04.778Z,69.25
2022-08-10T00:08:35.278Z,69.66
2022-08-10T00:11:05.471Z,69.09
2022-08-10T00:13:46.188Z,69.08
2022-08-10T00:16:16.403Z,69.23
2022-08-10T00:18:46.654Z,68.89
2022-08-10T00:21:16.841Z,68.68
2022-08-10T00:23:46.876Z,68.86
2022-08-10T00:26:16.221Z,68.41
2022-08-10T00:28:48.562Z,68.34
2022-08-10T00:31:18.728Z,67.61
2022-08-10T00:33:48.981Z,67.56
2022-08-10T00:36:22.371Z,67.63
2022-08-10T00:38:52.709Z,68.23
2022-08-10T00:41:23.000Z,68.38
2022-08-10T00:43:53.882Z,67.51
2022-08-10T00:46:23.823Z,67.05
2022-08-10T00:49:00.326Z,67.72
2022-08-10T00:51:32.461Z,67.27
2022-08-10T00:54:24.962Z,66.62
2022-08-10T00:57:17.848Z,66.98
2022-08-10T00:59:58.837Z,67.36
2022-08-10T01:02:33.279Z,66.45
2022-08-10T01:05:08.136Z,66.75
2022-08-10T01:08:12.072Z,67.01
2022-08-10T01:11:01.082Z,67.26
2022-08-10T01:14:12.587Z,67.20
2022-08-10T01:16:56.108Z,65.10
2022-08-10T01:19:38.779Z,66.69
2022-08-10T01:22:33.970Z,66.41
2022-08-10T01:26:11.415Z,64.93
2022-08-10T01:28:43.300Z,65.96
2022-08-10T01:31:18.356Z,63.80
2022-08-10T01:34:14.048Z,65.62
2022-08-10T01:36:52.028Z,66.28
2022-08-10T01:39:30.712Z,65.73
2022-08-10T01:42:04.725Z,65.22
2022-08-10T01:44:50.100Z,65.20
2022-08-10T01:47:41.806Z,63.23
2022-08-10T01:50:56.202Z,64.68
2022-08-10T01:53:45.841Z,66.06
2022-08-10T01:56:19.392Z,65.54
2022-08-10T02:02:10.427Z,65.13
2022-08-10T02:04:46.379Z,65.25
2022-08-10T02:07:25.145Z,62.32
2022-08-10T02:09:59.364Z,64.74
2022-08-10T02:12:48.252Z,65.79
2022-08-10T02:15:23.095Z,64.59
2022-08-10T02:18:01.882Z,64.67
2022-08-10T02:20:42.021Z,64.73
2022-08-10T02:23:21.851Z,64.65
2022-08-10T02:25:58.342Z,60.14
2022-08-10T02:29:17.474Z,63.49
2022-08-10T02:32:03.678Z,63.41
2022-08-10T02:37:50.915Z,65.07
2022-08-10T02:45:15.496Z,61.98
2022-08-10T02:45:19.059Z,63.39
2022-08-10T02:46:27.149Z,64.08
2022-08-10T02:49:06.393Z,64.71
2022-08-10T02:52:07.781Z,65.09
2022-08-10T02:54:46.144Z,63.52
2022-08-10T02:57:36.703Z,64.95
2022-08-10T03:00:32.152Z,63.03
2022-08-10T03:03:13.419Z,62.29
2022-08-10T03:05:45.598Z,60.59
2022-08-10T03:08:20.719Z,60.45
2022-08-10T03:10:53.062Z,61.66
2022-08-10T03:13:26.085Z,62.84
2022-08-10T03:15:59.520Z,63.80
2022-08-10T03:18:31.551Z,61.94
2022-08-10T03:21:01.970Z,63.63
2022-08-10T03:23:32.679Z,61.73
2022-08-10T03:26:04.141Z,61.04
2022-08-10T03:28:35.741Z,62.49
2022-08-10T03:31:07.201Z,63.36
2022-08-10T03:33:42.246Z,61.27
2022-08-10T03:36:40.728Z,62.81
2022-08-10T03:39:09.095Z,62.26
2022-08-10T03:41:47.774Z,63.05
2022-08-10T03:44:36.091Z,58.83
2022-08-10T03:47:15.068Z,62.82
2022-08-10T03:49:51.010Z,62.89
2022-08-10T03:52:28.933Z,62.37
2022-08-10T03:55:00.603Z,60.89
2022-08-10T03:57:34.947Z,62.18
2022-08-10T04:00:23.127Z,62.00
2022-08-10T04:02:55.104Z,62.05
2022-08-10T04:05:38.844Z,62.27
2022-08-10T04:08:10.415Z,62.04
2022-08-10T04:10:41.480Z,61.19
2022-08-10T04:13:13.639Z,61.58
2022-08-10T04:15:44.467Z,62.31
2022-08-10T04:18:15.747Z,61.54
2022-08-10T04:21:18.337Z,63.23
2022-08-10T04:23:53.169Z,61.69
2022-08-10T04:26:29.661Z,62.60
2022-08-10T04:29:00.415Z,61.99
2022-08-10T04:31:34.805Z,60.98
2022-08-10T04:34:08.814Z,62.11
2022-08-10T04:36:40.795Z,61.42
2022-08-10T04:39:15.657Z,59.94
2022-08-10T04:41:47.677Z,59.60
2022-08-10T04:44:18.653Z,58.60
2022-08-10T04:46:56.102Z,60.05
2022-08-10T04:49:56.278Z,58.09
2022-08-10T04:52:20.095Z,58.25
2022-08-10T04:54:52.499Z,59.47
2022-08-10T04:57:23.437Z,60.13
2022-08-10T04:59:53.773Z,60.95
2022-08-10T05:02:31.328Z,60.93
2022-08-10T05:05:04.498Z,59.90
2022-08-10T05:07:53.806Z,60.70
2022-08-10T05:10:26.426Z,59.96
2022-08-10T05:12:57.857Z,59.81
2022-08-10T05:15:32.940Z,60.68
2022-08-10T05:18:11.201Z,58.90
2022-08-10T05:20:50.025Z,59.63
2022-08-10T05:23:28.015Z,59.27
2022-08-10T05:26:02.250Z,56.96
2022-08-10T05:28:35.163Z,58.15
2022-08-10T05:31:12.218Z,59.98
2022-08-10T05:33:53.254Z,57.32
2022-08-10T05:36:24.374Z,57.39
2022-08-10T05:38:55.498Z,56.62
2022-08-10T05:41:52.980Z,55.92
2022-08-10T05:44:26.208Z,57.45
2022-08-10T05:46:56.641Z,57.84
2022-08-10T05:49:29.050Z,56.03
2022-08-10T05:52:03.000Z,58.03
2022-08-10T05:54:33.844Z,57.15
2022-08-10T05:57:04.672Z,57.10
2022-08-10T06:00:10.714Z,57.94
2022-08-10T06:03:04.398Z,59.07
2022-08-10T06:05:38.950Z,57.46
2022-08-10T06:08:26.859Z,58.67
2022-08-10T06:12:23.509Z,56.96
2022-08-10T06:14:12.970Z,55.78
2022-08-10T06:16:46.460Z,54.52
2022-08-10T06:19:17.131Z,55.30
2022-08-10T06:22:01.432Z,55.60
2022-08-10T06:24:35.395Z,56.30
2022-08-10T06:27:07.363Z,55.90
2022-08-10T06:29:42.510Z,56.26
2022-08-10T06:32:15.148Z,52.46
2022-08-10T06:34:52.922Z,53.84
2022-08-10T06:37:28.639Z,50.57
2022-08-10T06:39:59.579Z,53.41
2022-08-10T06:42:44.308Z,55.45
2022-08-10T06:45:33.183Z,57.30
2022-08-10T06:48:40.429Z,57.64
2022-08-10T06:51:19.461Z,57.04
2022-08-10T06:53:59.598Z,55.94
2022-08-10T06:57:08.346Z,55.57
2022-08-10T06:59:57.304Z,57.39
2022-08-10T07:02:41.219Z,52.04
2022-08-10T07:06:13.604Z,56.88
2022-08-10T07:08:52.137Z,55.52
2022-08-10T07:11:24.150Z,55.74
2022-08-10T07:14:15.569Z,54.73
2022-08-10T07:16:50.636Z,55.20
2022-08-10T07:19:25.788Z,55.49
2022-08-10T07:22:00.108Z,56.68
2022-08-10T07:24:34.122Z,55.70
2022-08-10T07:27:09.505Z,55.71
2022-08-10T07:29:54.302Z,54.51
2022-08-10T07:32:25.624Z,53.56
2022-08-10T07:34:58.451Z,55.31
2022-08-10T07:37:34.874Z,56.09
2022-08-10T07:40:07.108Z,55.14
2022-08-10T07:42:45.640Z,55.74
2022-08-10T07:45:16.956Z,54.41
2022-08-10T07:48:13.626Z,57.28
2022-08-10T07:50:45.103Z,55.45
2022-08-10T07:53:23.802Z,56.33
2022-08-10T07:56:05.362Z,52.47
2022-08-10T07:58:56.068Z,55.33
2022-08-10T08:01:36.458Z,55.89
2022-08-10T08:04:12.118Z,55.43
2022-08-10T08:06:46.259Z,54.46
2022-08-10T08:09:17.851Z,54.10
2022-08-10T08:11:50.855Z,54.91
2022-08-10T08:14:23.493Z,55.22
2022-08-10T08:16:57.998Z,54.92
2022-08-10T08:19:37.062Z,55.85
2022-08-10T08:24:09.884Z,53.88
2022-08-10T08:24:59.947Z,54.96
2022-08-10T08:27:31.835Z,55.41
2022-08-10T08:30:07.174Z,52.40
2022-08-10T08:32:40.770Z,53.02
2022-08-10T08:35:15.113Z,53.26
2022-08-10T08:38:31.780Z,48.70
2022-08-10T08:40:43.017Z,52.89
2022-08-10T08:43:39.765Z,52.24
2022-08-10T08:46:59.232Z,54.42
2022-08-10T08:50:09.118Z,54.76
2022-08-10T08:53:01.230Z,54.85
2022-08-10T08:56:04.321Z,54.62
2022-08-10T08:58:55.085Z,51.26
2022-08-10T09:01:43.691Z,54.93
2022-08-10T09:04:34.903Z,53.93
2022-08-10T09:07:59.672Z,53.88
2022-08-10T09:10:37.691Z,55.16
2022-08-10T09:13:28.026Z,54.68
2022-08-10T09:16:45.249Z,54.77
2022-08-10T09:19:36.841Z,54.99
2022-08-10T09:22:18.772Z,51.86
2022-08-10T09:25:15.464Z,53.62
2022-08-10T09:27:51.858Z,52.98
2022-08-10T09:31:10.909Z,54.20
2022-08-10T09:36:28.153Z,54.85
2022-08-10T09:37:39.915Z,55.10
2022-08-10T09:41:00.977Z,54.52
2022-08-10T09:43:37.283Z,53.77
2022-08-10T09:46:36.273Z,53.67
2022-08-10T09:49:36.267Z,54.46
2022-08-10T09:52:35.922Z,53.92
2022-08-10T09:56:18.281Z,53.89
2022-08-10T09:59:59.602Z,54.65
2022-08-10T10:02:16.146Z,53.59
2022-08-10T10:05:12.708Z,54.30
2022-08-10T10:07:53.196Z,53.75
2022-08-10T10:10:35.807Z,53.58
2022-08-10T10:13:41.641Z,54.01
2022-08-10T10:16:46.931Z,53.08
2022-08-10T10:19:40.520Z,54.48
2022-08-10T10:22:48.915Z,54.56
2022-08-10T10:25:52.545Z,55.23
2022-08-10T10:32:42.440Z,54.61
2022-08-10T10:35:38.083Z,52.71
2022-08-10T10:38:55.142Z,54.92
2022-08-10T10:45:29.679Z,54.99
2022-08-10T10:48:45.886Z,54.61
2022-08-10T10:56:13.268Z,55.65
2022-08-10T10:58:54.839Z,55.09
2022-08-10T11:06:16.561Z,56.26
2022-08-10T11:10:08.635Z,56.31
2022-08-10T11:12:39.982Z,56.36
2022-08-10T11:15:32.721Z,56.54
2022-08-10T11:18:36.215Z,56.90
2022-08-10T11:21:42.342Z,57.18
2022-08-10T11:24:48.885Z,57.55
2022-08-10T11:31:40.661Z,58.17
2022-08-10T11:34:48.127Z,58.01
2022-08-10T11:38:32.668Z,58.09
2022-08-10T11:42:09.452Z,58.06
2022-08-10T11:45:14.094Z,57.90
2022-08-10T11:48:57.055Z,58.35
2022-08-10T11:52:15.394Z,58.51
2022-08-10T11:55:37.556Z,58.67
2022-08-10T11:59:16.540Z,58.90
2022-08-10T12:02:39.584Z,59.38
2022-08-10T12:10:08.871Z,59.11
2022-08-10T12:15:32.958Z,59.43
2022-08-10T12:18:23.624Z,59.76
2022-08-10T12:21:22.213Z,59.93
2022-08-10T12:24:17.115Z,60.09
2022-08-10T12:27:57.062Z,59.39
2022-08-10T12:30:34.689Z,59.65
2022-08-10T12:33:16.557Z,59.96
2022-08-10T12:36:18.421Z,60.14
2022-08-10T12:39:17.355Z,59.92
2022-08-10T12:42:12.069Z,60.02
2022-08-10T12:45:14.748Z,60.43
2022-08-10T12:47:55.701Z,60.38
2022-08-10T12:50:32.991Z,60.62
2022-08-10T12:53:12.414Z,60.54
2022-08-10T12:55:46.500Z,60.59
2022-08-10T12:58:57.990Z,60.99
2022-08-10T13:01:16.733Z,61.53
2022-08-10T13:04:21.570Z,61.51
2022-08-10T13:06:51.042Z,61.20
2022-08-10T13:09:32.581Z,61.04
2022-08-10T13:12:44.501Z,60.95
2022-08-10T13:15:50.113Z,60.59
2022-08-10T13:18:45.961Z,61.03
2022-08-10T13:21:21.476Z,61.68
2022-08-10T13:24:04.230Z,61.79
2022-08-10T13:26:49.468Z,62.26
2022-08-10T13:29:44.138Z,61.89
2022-08-10T13:32:24.113Z,61.80
2022-08-10T13:34:59.603Z,62.37
2022-08-10T13:37:32.219Z,62.40
2022-08-10T13:40:04.878Z,62.42
2022-08-10T13:42:41.842Z,62.10
2022-08-10T13:45:25.363Z,62.33
2022-08-10T13:48:10.285Z,62.74
2022-08-10T13:50:43.091Z,62.77
2022-08-10T13:53:19.886Z,62.46
2022-08-10T13:55:57.338Z,61.74
2022-08-10T13:58:41.518Z,61.65
2022-08-10T14:04:43.027Z,62.66
2022-08-10T14:08:00.288Z,62.05
2022-08-10T14:11:11.311Z,62.21
2022-08-10T14:14:40.142Z,61.89
2022-08-10T14:17:44.769Z,62.02
2022-08-10T14:20:29.221Z,62.87
2022-08-10T14:23:25.070Z,62.27
2022-08-10T14:30:01.701Z,62.45
2022-08-10T14:33:10.952Z,62.09
2022-08-10T14:39:20.241Z,62.53
2022-08-10T14:42:27.766Z,62.06
2022-08-10T14:45:47.356Z,62.75
2022-08-10T14:49:26.667Z,62.61
2022-08-10T14:52:52.731Z,62.73
2022-08-10T14:55:58.744Z,62.58
2022-08-10T15:05:52.950Z,62.75
2022-08-10T15:12:18.614Z,62.92
2022-08-10T15:15:30.452Z,63.29
2022-08-10T15:18:27.709Z,63.22
2022-08-10T15:24:13.897Z,64.43
2022-08-10T15:26:58.003Z,64.07
2022-08-10T15:34:02.283Z,63.54
2022-08-10T15:37:40.134Z,63.75
2022-08-10T15:40:50.935Z,64.63
2022-08-10T15:43:53.029Z,63.86
2022-08-10T15:47:15.181Z,64.28
2022-08-10T15:50:03.697Z,63.94
2022-08-10T15:57:09.843Z,63.96
2022-08-10T16:00:26.885Z,63.86
2022-08-10T16:03:54.567Z,64.42
2022-08-10T16:07:09.868Z,64.65
2022-08-10T16:10:24.900Z,64.14
2022-08-10T16:13:50.317Z,64.49
2022-08-10T16:16:17.891Z,64.91
2022-08-10T16:18:54.757Z,65.23
2022-08-10T16:21:30.415Z,65.61
2022-08-10T16:24:15.289Z,64.84
2022-08-10T16:26:52.673Z,64.78
2022-08-10T16:29:26.474Z,64.92
2022-08-10T16:32:05.033Z,64.85
2022-08-10T16:34:39.815Z,64.93
2022-08-10T16:37:11.863Z,66.26
2022-08-10T16:40:01.428Z,65.96
2022-08-10T16:42:45.076Z,64.74
2022-08-10T16:45:24.364Z,65.23
2022-08-10T16:47:57.973Z,65.76
2022-08-10T16:50:32.200Z,65.80
2022-08-10T16:53:07.173Z,65.93
2022-08-10T16:55:48.504Z,65.48
2022-08-10T16:58:36.471Z,65.33
2022-08-10T17:01:10.533Z,65.81
2022-08-10T17:04:08.302Z,65.48
2022-08-10T17:06:53.873Z,65.96
2022-08-10T17:09:30.682Z,65.94
2022-08-10T17:12:06.046Z,66.43
2022-08-10T17:14:41.622Z,66.15
2022-08-10T17:17:28.130Z,66.03
2022-08-10T17:20:31.375Z,66.47
2022-08-10T17:23:00.911Z,65.89
2022-08-10T17:25:45.848Z,66.40
2022-08-10T17:28:33.260Z,66.40
2022-08-10T17:31:53.211Z,65.66
2022-08-10T17:34:04.131Z,66.83
2022-08-10T17:36:38.052Z,67.04
2022-08-10T17:39:13.913Z,66.57
2022-08-10T17:41:49.800Z,66.38
2022-08-10T17:44:21.403Z,67.17
2022-08-10T17:46:52.521Z,66.95
2022-08-10T17:49:22.971Z,67.24
2022-08-10T17:51:55.941Z,66.89
2022-08-10T17:54:40.440Z,66.23
2022-08-10T17:57:17.227Z,66.76
2022-08-10T17:59:51.474Z,67.52
2022-08-10T18:02:30.606Z,66.66
2022-08-10T18:05:03.948Z,67.29
2022-08-10T18:07:40.456Z,66.68
2022-08-10T18:10:16.249Z,66.80
2022-08-10T18:12:54.460Z,66.70
2022-08-10T18:15:28.780Z,66.88
2022-08-10T18:18:02.646Z,66.55
2022-08-10T18:20:39.414Z,66.93
2022-08-10T18:23:11.178Z,67.55
2022-08-10T18:25:45.625Z,67.34
2022-08-10T18:28:23.117Z,67.30
2022-08-10T18:30:55.636Z,67.66
2022-08-10T18:33:32.885Z,67.27
2022-08-10T18:36:06.491Z,67.52
2022-08-10T18:38:39.557Z,67.91
2022-08-10T18:41:17.793Z,66.75
2022-08-10T18:44:05.668Z,66.89
2022-08-10T18:46:56.647Z,66.73
2022-08-10T18:49:35.439Z,66.84
2022-08-10T18:52:16.784Z,66.96
2022-08-10T18:54:50.780Z,67.29
2022-08-10T18:57:57.867Z,66.89
2022-08-10T19:00:48.710Z,67.09
2022-08-10T19:03:36.821Z,67.28
2022-08-10T19:07:00.857Z,66.47
2022-08-10T19:09:51.908Z,66.75
2022-08-10T19:12:46.183Z,66.71
2022-08-10T19:15:28.090Z,66.91
2022-08-10T19:18:13.269Z,66.98
2022-08-10T19:21:25.154Z,66.45
2022-08-10T19:24:01.174Z,68.03
2022-08-10T19:26:46.042Z,67.23
2022-08-10T19:30:09.036Z,67.47
2022-08-10T19:32:50.282Z,67.63
2022-08-10T19:36:04.516Z,67.28
2022-08-10T19:39:06.296Z,66.59
2022-08-10T19:41:54.499Z,67.33
2022-08-10T19:44:40.030Z,66.93
2022-08-10T19:47:40.466Z,67.65
2022-08-10T19:50:36.109Z,67.38
2022-08-10T19:53:06.764Z,68.93
2022-08-10T19:56:30.591Z,67.29
2022-08-10T20:00:16.478Z,67.08
2022-08-10T20:03:08.131Z,67.46
2022-08-10T20:06:18.858Z,67.34
2022-08-10T20:09:16.757Z,67.30
2022-08-10T20:12:00.020Z,67.58
2022-08-10T20:14:59.377Z,68.25
2022-08-10T20:17:49.317Z,67.88
2022-08-10T20:20:50.146Z,67.67
2022-08-10T20:23:30.380Z,68.24
2022-08-10T20:26:29.239Z,67.31
2022-08-10T20:29:16.494Z,68.04
2022-08-10T20:32:22.310Z,68.05
2022-08-10T20:35:07.442Z,68.36
2022-08-10T20:38:03.805Z,68.28
2022-08-10T20:40:40.834Z,68.53
2022-08-10T20:43:32.034Z,68.37
2022-08-10T20:46:23.008Z,67.75
2022-08-10T20:49:06.189Z,68.01
2022-08-10T20:52:04.016Z,68.01
2022-08-10T20:55:00.848Z,67.79
2022-08-10T20:57:57.601Z,67.72
2022-08-10T21:00:51.195Z,67.47
2022-08-10T21:03:43.982Z,67.98
2022-08-10T21:06:55.077Z,68.09
2022-08-10T21:09:44.083Z,67.69
2022-08-10T21:12:34.091Z,68.39
2022-08-10T21:15:30.212Z,67.98
2022-08-10T21:18:20.745Z,68.46
2022-08-10T21:21:00.017Z,68.46
2022-08-10T21:23:31.274Z,67.62
2022-08-10T21:26:29.905Z,68.21
2022-08-10T21:29:37.992Z,67.75
2022-08-10T21:32:22.225Z,67.89
2022-08-10T21:38:36.819Z,67.68
2022-08-10T21:41:58.011Z,68.14
2022-08-10T21:45:11.076Z,68.18
2022-08-10T21:48:07.212Z,68.39
2022-08-10T21:51:24.207Z,68.31
2022-08-10T21:54:39.812Z,68.56
2022-08-10T21:57:43.017Z,69.40
2022-08-10T22:00:50.064Z,69.04
2022-08-10T22:03:40.014Z,69.34
2022-08-10T22:06:32.202Z,69.18
2022-08-10T22:09:27.737Z,68.43
2022-08-10T22:12:31.686Z,68.44
2022-08-10T22:16:03.835Z,67.93
2022-08-10T22:18:58.871Z,67.67
2022-08-10T22:22:27.090Z,68.35
2022-08-10T22:25:47.486Z,68.80
2022-08-10T22:28:40.034Z,68.84
2022-08-10T22:31:24.933Z,68.59
2022-08-10T22:31:48.213Z,68.33
2022-08-10T22:35:00.539Z,67.68
2022-08-10T22:37:56.869Z,68.69
2022-08-10T22:40:45.730Z,68.58
2022-08-10T22:43:46.075Z,68.80
2022-08-10T22:46:47.255Z,68.48
2022-08-10T22:49:26.762Z,68.27
2022-08-10T22:52:14.449Z,68.54
2022-08-10T22:55:29.775Z,68.34
2022-08-10T22:58:18.019Z,69.34
2022-08-10T23:01:03.752Z,68.47
2022-08-10T23:03:51.497Z,69.28
2022-08-10T23:06:28.330Z,69.35
2022-08-10T23:09:04.679Z,68.96
2022-08-10T23:11:46.787Z,68.84
2022-08-10T23:14:19.557Z,69.47
2022-08-10T23:17:14.557Z,68.97
2022-08-10T23:19:47.816Z,69.32
2022-08-10T23:22:21.049Z,69.60
2022-08-10T23:25:30.087Z,68.71
2022-08-10T23:28:12.312Z,69.45
2022-08-10T23:30:47.944Z,69.96
2022-08-10T23:33:37.579Z,69.83
2022-08-10T23:36:33.800Z,69.80
2022-08-10T23:39:25.254Z,69.81
2022-08-10T23:42:06.352Z,69.64
2022-08-10T23:44:49.463Z,69.75
2022-08-10T23:47:25.581Z,69.36
2022-08-10T23:49:59.592Z,69.96
2022-08-10T23:52:36.304Z,69.68
2022-08-10T23:55:14.382Z,69.20
2022-08-10T23:57:48.782Z,69.90
